sensor_id;sensor_type;location;lat;lon;timestamp;pressure;altitude;pressure_sealevel;temperature;humidity
78411;BME280;67706;51.074;-1.796;2023-09-30T00:01:36;102140.41;;;12.51;100.00
78411;BME280;67706;51.074;-1.796;2023-09-30T00:04:04;102146.44;;;12.46;100.00
78411;BME280;67706;51.074;-1.796;2023-09-30T00:06:32;102140.25;;;12.44;100.00
78411;BME280;67706;51.074;-1.796;2023-09-30T00:08:59;102127.16;;;12.46;100.00
78411;BME280;67706;51.074;-1.796;2023-09-30T00:11:25;102123.75;;;12.44;100.00
78411;BME280;67706;51.074;-1.796;2023-09-30T00:13:53;102128.22;;;12.45;99.81
78411;BME280;67706;51.074;-1.796;2023-09-30T00:16:20;102133.38;;;12.40;100.00
78411;BME280;67706;51.074;-1.796;2023-09-30T00:18:47;102128.25;;;12.37;100.00
78411;BME280;67706;51.074;-1.796;2023-09-30T00:21:14;102132.41;;;12.33;100.00
78411;BME280;67706;51.074;-1.796;2023-09-30T00:23:41;102130.34;;;12.35;100.00
78411;BME280;67706;51.074;-1.796;2023-09-30T00:26:07;102140.28;;;12.36;100.00
78411;BME280;67706;51.074;-1.796;2023-09-30T00:28:34;102148.72;;;12.35;100.00
78411;BME280;67706;51.074;-1.796;2023-09-30T00:31:06;102150.63;;;12.34;100.00
78411;BME280;67706;51.074;-1.796;2023-09-30T00:33:34;102160.28;;;12.22;100.00
78411;BME280;67706;51.074;-1.796;2023-09-30T00:36:06;102158.19;;;12.32;100.00
78411;BME280;67706;51.074;-1.796;2023-09-30T00:38:32;102160.25;;;12.30;100.00
78411;BME280;67706;51.074;-1.796;2023-09-30T00:40:59;102161.13;;;12.31;100.00
78411;BME280;67706;51.074;-1.796;2023-09-30T00:43:25;102160.78;;;12.26;100.00
78411;BME280;67706;51.074;-1.796;2023-09-30T00:46:00;102169.22;;;12.24;100.00
78411;BME280;67706;51.074;-1.796;2023-09-30T00:48:29;102164.59;;;12.25;100.00
78411;BME280;67706;51.074;-1.796;2023-09-30T00:50:56;102167.84;;;12.28;100.00
78411;BME280;67706;51.074;-1.796;2023-09-30T00:53:23;102167.50;;;12.31;100.00
78411;BME280;67706;51.074;-1.796;2023-09-30T00:55:50;102159.94;;;12.33;100.00
78411;BME280;67706;51.074;-1.796;2023-09-30T00:58:19;102162.34;;;12.28;100.00
78411;BME280;67706;51.074;-1.796;2023-09-30T01:00:47;102169.72;;;12.28;100.00
78411;BME280;67706;51.074;-1.796;2023-09-30T01:03:14;102168.22;;;12.25;100.00
78411;BME280;67706;51.074;-1.796;2023-09-30T01:05:42;102171.78;;;12.26;100.00
78411;BME280;67706;51.074;-1.796;2023-09-30T01:08:09;102167.69;;;12.22;100.00
78411;BME280;67706;51.074;-1.796;2023-09-30T01:10:36;102160.28;;;12.22;100.00
78411;BME280;67706;51.074;-1.796;2023-09-30T01:13:02;102174.38;;;12.19;100.00
78411;BME280;67706;51.074;-1.796;2023-09-30T01:15:29;102162.03;;;12.15;100.00
78411;BME280;67706;51.074;-1.796;2023-09-30T01:17:56;102158.97;;;12.10;100.00
78411;BME280;67706;51.074;-1.796;2023-09-30T01:20:23;102155.69;;;12.15;100.00
78411;BME280;67706;51.074;-1.796;2023-09-30T01:22:51;102162.41;;;12.12;100.00
78411;BME280;67706;51.074;-1.796;2023-09-30T01:25:20;102163.59;;;12.10;100.00
78411;BME280;67706;51.074;-1.796;2023-09-30T01:27:47;102150.84;;;12.09;100.00
78411;BME280;67706;51.074;-1.796;2023-09-30T01:30:14;102162.22;;;12.06;100.00
78411;BME280;67706;51.074;-1.796;2023-09-30T01:32:40;102163.09;;;12.06;100.00
78411;BME280;67706;51.074;-1.796;2023-09-30T01:35:08;102157.94;;;12.03;100.00
78411;BME280;67706;51.074;-1.796;2023-09-30T01:37:36;102155.19;;;12.03;100.00
78411;BME280;67706;51.074;-1.796;2023-09-30T01:40:05;102143.88;;;11.98;100.00
78411;BME280;67706;51.074;-1.796;2023-09-30T01:42:36;102138.22;;;11.91;100.00
78411;BME280;67706;51.074;-1.796;2023-09-30T01:45:03;102134.06;;;11.95;100.00
78411;BME280;67706;51.074;-1.796;2023-09-30T01:47:30;102113.94;;;11.95;100.00
78411;BME280;67706;51.074;-1.796;2023-09-30T01:49:57;102117.03;;;11.92;100.00
78411;BME280;67706;51.074;-1.796;2023-09-30T01:52:24;102129.63;;;11.86;100.00
78411;BME280;67706;51.074;-1.796;2023-09-30T01:54:51;102135.28;;;11.85;100.00
78411;BME280;67706;51.074;-1.796;2023-09-30T01:57:20;102127.56;;;11.80;100.00
78411;BME280;67706;51.074;-1.796;2023-09-30T01:59:47;102118.13;;;11.75;100.00
78411;BME280;67706;51.074;-1.796;2023-09-30T02:02:14;102112.28;;;11.78;100.00
78411;BME280;67706;51.074;-1.796;2023-09-30T02:04:41;102104.38;;;11.75;100.00
78411;BME280;67706;51.074;-1.796;2023-09-30T02:07:09;102105.06;;;11.69;100.00
78411;BME280;67706;51.074;-1.796;2023-09-30T02:09:36;102106.47;;;11.73;100.00
78411;BME280;67706;51.074;-1.796;2023-09-30T02:12:02;102108.13;;;11.66;100.00
78411;BME280;67706;51.074;-1.796;2023-09-30T02:14:31;102101.63;;;11.67;100.00
78411;BME280;67706;51.074;-1.796;2023-09-30T02:16:58;102106.09;;;11.68;100.00
78411;BME280;67706;51.074;-1.796;2023-09-30T02:19:24;102101.63;;;11.67;100.00
78411;BME280;67706;51.074;-1.796;2023-09-30T02:21:52;102104.38;;;11.67;100.00
78411;BME280;67706;51.074;-1.796;2023-09-30T02:24:19;102102.66;;;11.66;100.00
78411;BME280;67706;51.074;-1.796;2023-09-30T02:26:48;102102.50;;;11.67;100.00
78411;BME280;67706;51.074;-1.796;2023-09-30T02:29:15;102099.91;;;11.66;100.00
78411;BME280;67706;51.074;-1.796;2023-09-30T02:31:43;102100.75;;;11.58;100.00
78411;BME280;67706;51.074;-1.796;2023-09-30T02:34:09;102111.22;;;11.63;100.00
78411;BME280;67706;51.074;-1.796;2023-09-30T02:36:36;102106.25;;;11.58;100.00
78411;BME280;67706;51.074;-1.796;2023-09-30T02:39:04;102111.91;;;11.57;100.00
78411;BME280;67706;51.074;-1.796;2023-09-30T02:41:34;102112.28;;;11.54;100.00
78411;BME280;67706;51.074;-1.796;2023-09-30T02:44:01;102101.81;;;11.49;100.00
78411;BME280;67706;51.074;-1.796;2023-09-30T02:46:27;102104.88;;;11.54;100.00
78411;BME280;67706;51.074;-1.796;2023-09-30T02:48:55;102104.88;;;11.54;100.00
78411;BME280;67706;51.074;-1.796;2023-09-30T02:51:22;102109.50;;;11.46;100.00
78411;BME280;67706;51.074;-1.796;2023-09-30T02:53:50;102115.88;;;11.38;100.00
78411;BME280;67706;51.074;-1.796;2023-09-30T02:56:17;102121.19;;;11.40;100.00
78411;BME280;67706;51.074;-1.796;2023-09-30T02:58:45;102117.63;;;11.39;100.00
78411;BME280;67706;51.074;-1.796;2023-09-30T03:01:14;102104.56;;;11.41;100.00
78411;BME280;67706;51.074;-1.796;2023-09-30T03:03:42;102100.94;;;11.41;100.00
78411;BME280;67706;51.074;-1.796;2023-09-30T03:06:11;102108.00;;;11.35;100.00
78411;BME280;67706;51.074;-1.796;2023-09-30T03:08:37;102109.88;;;11.35;100.00
78411;BME280;67706;51.074;-1.796;2023-09-30T03:11:04;102102.66;;;11.34;100.00
78411;BME280;67706;51.074;-1.796;2023-09-30T03:13:31;102092.72;;;11.33;100.00
78411;BME280;67706;51.074;-1.796;2023-09-30T03:15:58;102104.72;;;11.40;100.00
78411;BME280;67706;51.074;-1.796;2023-09-30T03:18:26;102096.81;;;11.45;100.00
78411;BME280;67706;51.074;-1.796;2023-09-30T03:21:00;102101.81;;;11.41;100.00
78411;BME280;67706;51.074;-1.796;2023-09-30T03:23:29;102115.88;;;11.46;100.00
78411;BME280;67706;51.074;-1.796;2023-09-30T03:25:57;102104.75;;;11.48;100.00
78411;BME280;67706;51.074;-1.796;2023-09-30T03:28:23;102101.63;;;11.43;100.00
78411;BME280;67706;51.074;-1.796;2023-09-30T03:30:50;102091.84;;;11.40;100.00
78411;BME280;67706;51.074;-1.796;2023-09-30T03:33:17;102084.66;;;11.39;100.00
78411;BME280;67706;51.074;-1.796;2023-09-30T03:35:44;102080.16;;;11.38;100.00
78411;BME280;67706;51.074;-1.796;2023-09-30T03:38:11;102070.91;;;11.39;100.00
78411;BME280;67706;51.074;-1.796;2023-09-30T03:40:40;102071.75;;;11.40;100.00
78411;BME280;67706;51.074;-1.796;2023-09-30T03:43:13;102064.56;;;11.39;100.00
78411;BME280;67706;51.074;-1.796;2023-09-30T03:45:40;102054.25;;;11.41;100.00
78411;BME280;67706;51.074;-1.796;2023-09-30T03:48:06;102053.88;;;11.44;100.00
78411;BME280;67706;51.074;-1.796;2023-09-30T03:50:33;102060.75;;;11.40;100.00
78411;BME280;67706;51.074;-1.796;2023-09-30T03:53:01;102063.50;;;11.40;100.00
78411;BME280;67706;51.074;-1.796;2023-09-30T03:55:30;102075.19;;;11.42;100.00
78411;BME280;67706;51.074;-1.796;2023-09-30T03:57:58;102068.84;;;11.41;100.00
78411;BME280;67706;51.074;-1.796;2023-09-30T04:00:25;102055.94;;;11.42;100.00
78411;BME280;67706;51.074;-1.796;2023-09-30T04:02:53;102059.03;;;11.47;100.00
78411;BME280;67706;51.074;-1.796;2023-09-30T04:05:24;102058.03;;;11.48;100.00
78411;BME280;67706;51.074;-1.796;2023-09-30T04:07:55;102044.44;;;11.46;100.00
78411;BME280;67706;51.074;-1.796;2023-09-30T04:10:22;102059.56;;;11.42;100.00
78411;BME280;67706;51.074;-1.796;2023-09-30T04:12:49;102049.75;;;11.40;100.00
78411;BME280;67706;51.074;-1.796;2023-09-30T04:15:18;102054.06;;;11.42;100.00
78411;BME280;67706;51.074;-1.796;2023-09-30T04:17:44;102060.44;;;11.43;100.00
78411;BME280;67706;51.074;-1.796;2023-09-30T04:20:11;102056.31;;;11.39;100.00
78411;BME280;67706;51.074;-1.796;2023-09-30T04:22:45;102048.06;;;11.39;100.00
78411;BME280;67706;51.074;-1.796;2023-09-30T04:25:14;102052.19;;;11.35;100.00
78411;BME280;67706;51.074;-1.796;2023-09-30T04:27:42;102058.03;;;11.32;100.00
78411;BME280;67706;51.074;-1.796;2023-09-30T04:30:10;102054.41;;;11.31;100.00
78411;BME280;67706;51.074;-1.796;2023-09-30T04:32:38;102052.91;;;11.29;100.00
78411;BME280;67706;51.074;-1.796;2023-09-30T04:35:05;102053.56;;;11.31;100.00
78411;BME280;67706;51.074;-1.796;2023-09-30T04:37:33;102056.31;;;11.31;100.00
78411;BME280;67706;51.074;-1.796;2023-09-30T04:40:01;102055.63;;;11.29;100.00
78411;BME280;67706;51.074;-1.796;2023-09-30T04:42:33;102059.41;;;11.28;100.00
78411;BME280;67706;51.074;-1.796;2023-09-30T04:45:02;102060.09;;;11.30;100.00
78411;BME280;67706;51.074;-1.796;2023-09-30T04:47:29;102050.13;;;11.37;100.00
78411;BME280;67706;51.074;-1.796;2023-09-30T04:49:59;102052.69;;;11.38;100.00
78411;BME280;67706;51.074;-1.796;2023-09-30T04:52:29;102062.66;;;11.39;100.00
78411;BME280;67706;51.074;-1.796;2023-09-30T04:54:56;102059.25;;;11.37;100.00
78411;BME280;67706;51.074;-1.796;2023-09-30T04:57:23;102062.31;;;11.34;100.00
78411;BME280;67706;51.074;-1.796;2023-09-30T04:59:50;102051.31;;;11.34;100.00
78411;BME280;67706;51.074;-1.796;2023-09-30T05:02:17;102052.19;;;11.35;100.00
78411;BME280;67706;51.074;-1.796;2023-09-30T05:04:44;102055.81;;;11.35;100.00
78411;BME280;67706;51.074;-1.796;2023-09-30T05:07:12;102051.31;;;11.34;100.00
78411;BME280;67706;51.074;-1.796;2023-09-30T05:09:38;102050.47;;;11.34;100.00
78411;BME280;67706;51.074;-1.796;2023-09-30T05:12:06;102046.03;;;11.33;100.00
78411;BME280;67706;51.074;-1.796;2023-09-30T05:14:33;102036.72;;;11.34;100.00
78411;BME280;67706;51.074;-1.796;2023-09-30T05:17:00;102028.50;;;11.34;100.00
78411;BME280;67706;51.074;-1.796;2023-09-30T05:19:26;102028.31;;;11.27;100.00
78411;BME280;67706;51.074;-1.796;2023-09-30T05:21:53;102034.00;;;11.26;100.00
78411;BME280;67706;51.074;-1.796;2023-09-30T05:24:21;102037.63;;;11.10;100.00
78411;BME280;67706;51.074;-1.796;2023-09-30T05:26:48;102034.53;;;11.13;100.00
78411;BME280;67706;51.074;-1.796;2023-09-30T05:29:14;102045.31;;;11.14;100.00
78411;BME280;67706;51.074;-1.796;2023-09-30T05:31:42;102056.16;;;11.08;100.00
78411;BME280;67706;51.074;-1.796;2023-09-30T05:34:08;102054.09;;;11.10;100.00
78411;BME280;67706;51.074;-1.796;2023-09-30T05:36:35;102055.13;;;11.09;100.00
78411;BME280;67706;51.074;-1.796;2023-09-30T05:39:02;102058.03;;;11.07;100.00
78411;BME280;67706;51.074;-1.796;2023-09-30T05:41:31;102057.34;;;11.13;100.00
78411;BME280;67706;51.074;-1.796;2023-09-30T05:43:58;102057.84;;;11.17;100.00
78411;BME280;67706;51.074;-1.796;2023-09-30T05:46:25;102052.72;;;11.14;100.00
78411;BME280;67706;51.074;-1.796;2023-09-30T05:48:52;102049.13;;;11.13;100.00
78411;BME280;67706;51.074;-1.796;2023-09-30T05:51:19;102051.38;;;11.10;100.00
78411;BME280;67706;51.074;-1.796;2023-09-30T05:53:47;102063.53;;;11.07;100.00
78411;BME280;67706;51.074;-1.796;2023-09-30T05:56:14;102069.53;;;11.03;100.00
78411;BME280;67706;51.074;-1.796;2023-09-30T05:58:42;102082.06;;;10.97;100.00
78411;BME280;67706;51.074;-1.796;2023-09-30T06:01:09;102098.88;;;10.94;100.00
78411;BME280;67706;51.074;-1.796;2023-09-30T06:03:38;102100.25;;;10.90;100.00
78411;BME280;67706;51.074;-1.796;2023-09-30T06:06:10;102088.91;;;10.85;100.00
78411;BME280;67706;51.074;-1.796;2023-09-30T06:08:39;102079.16;;;10.83;100.00
78411;BME280;67706;51.074;-1.796;2023-09-30T06:11:05;102079.28;;;10.81;100.00
78411;BME280;67706;51.074;-1.796;2023-09-30T06:13:32;102075.53;;;10.74;100.00
78411;BME280;67706;51.074;-1.796;2023-09-30T06:16:01;102079.28;;;10.65;100.00
78411;BME280;67706;51.074;-1.796;2023-09-30T06:18:28;102073.78;;;10.65;100.00
78411;BME280;67706;51.074;-1.796;2023-09-30T06:20:55;102075.47;;;10.66;100.00
78411;BME280;67706;51.074;-1.796;2023-09-30T06:23:23;102072.56;;;10.60;100.00
78411;BME280;67706;51.074;-1.796;2023-09-30T06:25:49;102070.16;;;10.65;100.00
78411;BME280;67706;51.074;-1.796;2023-09-30T06:28:16;102068.28;;;10.65;100.00
78411;BME280;67706;51.074;-1.796;2023-09-30T06:30:43;102068.78;;;10.61;100.00
78411;BME280;67706;51.074;-1.796;2023-09-30T06:33:13;102078.91;;;10.60;100.00
78411;BME280;67706;51.074;-1.796;2023-09-30T06:35:40;102074.97;;;10.63;100.00
78411;BME280;67706;51.074;-1.796;2023-09-30T06:38:16;102078.56;;;10.63;100.00
78411;BME280;67706;51.074;-1.796;2023-09-30T06:40:43;102082.34;;;10.62;100.00
78411;BME280;67706;51.074;-1.796;2023-09-30T06:43:10;102085.94;;;10.55;100.00
78411;BME280;67706;51.074;-1.796;2023-09-30T06:45:37;102090.03;;;10.51;100.00
78411;BME280;67706;51.074;-1.796;2023-09-30T06:48:07;102101.53;;;10.62;100.00
78411;BME280;67706;51.074;-1.796;2023-09-30T06:50:40;102110.31;;;10.66;100.00
78411;BME280;67706;51.074;-1.796;2023-09-30T06:53:07;102115.81;;;10.66;100.00
78411;BME280;67706;51.074;-1.796;2023-09-30T06:55:37;102110.31;;;10.66;100.00
78411;BME280;67706;51.074;-1.796;2023-09-30T06:58:03;102118.06;;;10.70;100.00
78411;BME280;67706;51.074;-1.796;2023-09-30T07:00:33;102122.69;;;10.78;100.00
78411;BME280;67706;51.074;-1.796;2023-09-30T07:03:00;102113.28;;;10.80;100.00
78411;BME280;67706;51.074;-1.796;2023-09-30T07:05:27;102107.09;;;10.86;100.00
78411;BME280;67706;51.074;-1.796;2023-09-30T07:07:56;102102.63;;;10.85;100.00
78411;BME280;67706;51.074;-1.796;2023-09-30T07:10:23;102101.25;;;10.89;100.00
78411;BME280;67706;51.074;-1.796;2023-09-30T07:12:49;102110.38;;;10.98;100.00
78411;BME280;67706;51.074;-1.796;2023-09-30T07:15:15;102115.03;;;11.05;100.00
78411;BME280;67706;51.074;-1.796;2023-09-30T07:17:42;102115.72;;;11.07;100.00
78411;BME280;67706;51.074;-1.796;2023-09-30T07:20:11;102117.78;;;11.05;100.00
78411;BME280;67706;51.074;-1.796;2023-09-30T07:22:38;102122.91;;;11.08;100.00
78411;BME280;67706;51.074;-1.796;2023-09-30T07:25:07;102121.91;;;11.09;100.00
78411;BME280;67706;51.074;-1.796;2023-09-30T07:27:34;102118.47;;;11.07;100.00
78411;BME280;67706;51.074;-1.796;2023-09-30T07:30:01;102115.34;;;11.10;100.00
78411;BME280;67706;51.074;-1.796;2023-09-30T07:32:28;102113.28;;;11.12;100.00
78411;BME280;67706;51.074;-1.796;2023-09-30T07:34:55;102119.84;;;11.19;100.00
78411;BME280;67706;51.074;-1.796;2023-09-30T07:37:21;102121.91;;;11.26;100.00
78411;BME280;67706;51.074;-1.796;2023-09-30T07:39:48;102124.31;;;11.29;100.00
78411;BME280;67706;51.074;-1.796;2023-09-30T07:42:16;102130.50;;;11.39;100.00
78411;BME280;67706;51.074;-1.796;2023-09-30T07:44:43;102134.78;;;11.41;100.00
78411;BME280;67706;51.074;-1.796;2023-09-30T07:47:10;102124.47;;;11.51;100.00
78411;BME280;67706;51.074;-1.796;2023-09-30T07:49:37;102135.63;;;11.58;100.00
78411;BME280;67706;51.074;-1.796;2023-09-30T07:52:04;102139.75;;;11.62;100.00
78411;BME280;67706;51.074;-1.796;2023-09-30T07:54:31;102132.88;;;11.66;100.00
78411;BME280;67706;51.074;-1.796;2023-09-30T07:56:58;102131.88;;;11.75;100.00
78411;BME280;67706;51.074;-1.796;2023-09-30T07:59:26;102131.47;;;11.94;100.00
78411;BME280;67706;51.074;-1.796;2023-09-30T08:01:53;102121.81;;;12.14;100.00
78411;BME280;67706;51.074;-1.796;2023-09-30T08:04:20;102114.16;;;12.32;100.00
78411;BME280;67706;51.074;-1.796;2023-09-30T08:06:47;102100.13;;;12.58;100.00
78411;BME280;67706;51.074;-1.796;2023-09-30T08:09:13;102103.63;;;12.74;100.00
78411;BME280;67706;51.074;-1.796;2023-09-30T08:11:40;102104.13;;;13.01;100.00
78411;BME280;67706;51.074;-1.796;2023-09-30T08:14:07;102105.41;;;13.21;100.00
78411;BME280;67706;51.074;-1.796;2023-09-30T08:16:36;102112.75;;;13.28;99.29
78411;BME280;67706;51.074;-1.796;2023-09-30T08:19:03;102114.41;;;13.37;98.27
78411;BME280;67706;51.074;-1.796;2023-09-30T08:21:30;102107.66;;;13.40;98.02
78411;BME280;67706;51.074;-1.796;2023-09-30T08:23:57;102107.13;;;13.44;97.60
78411;BME280;67706;51.074;-1.796;2023-09-30T08:26:23;102106.91;;;13.46;97.99
78411;BME280;67706;51.074;-1.796;2023-09-30T08:28:50;102112.47;;;13.61;97.30
78411;BME280;67706;51.074;-1.796;2023-09-30T08:31:17;102114.41;;;13.75;96.47
78411;BME280;67706;51.074;-1.796;2023-09-30T08:33:45;102121.16;;;13.87;95.54
78411;BME280;67706;51.074;-1.796;2023-09-30T08:36:12;102118.25;;;14.03;95.04
78411;BME280;67706;51.074;-1.796;2023-09-30T08:38:40;102114.31;;;14.12;92.95
78411;BME280;67706;51.074;-1.796;2023-09-30T08:41:07;102111.66;;;14.18;91.95
78411;BME280;67706;51.074;-1.796;2023-09-30T08:43:37;102105.69;;;14.15;91.35
78411;BME280;67706;51.074;-1.796;2023-09-30T08:46:04;102096.44;;;14.22;91.26
78411;BME280;67706;51.074;-1.796;2023-09-30T08:48:32;102102.94;;;14.29;91.00
78411;BME280;67706;51.074;-1.796;2023-09-30T08:51:01;102096.84;;;14.34;91.86
78411;BME280;67706;51.074;-1.796;2023-09-30T08:53:28;102102.63;;;14.39;92.46
78411;BME280;67706;51.074;-1.796;2023-09-30T08:55:56;102109.97;;;14.47;90.71
78411;BME280;67706;51.074;-1.796;2023-09-30T08:58:27;102104.06;;;14.50;91.76
78411;BME280;67706;51.074;-1.796;2023-09-30T09:00:54;102098.25;;;14.59;91.41
78411;BME280;67706;51.074;-1.796;2023-09-30T09:03:21;102095.81;;;14.71;91.72
78411;BME280;67706;51.074;-1.796;2023-09-30T09:05:53;102091.00;;;14.94;91.02
78411;BME280;67706;51.074;-1.796;2023-09-30T09:08:22;102086.56;;;15.14;90.74
78411;BME280;67706;51.074;-1.796;2023-09-30T09:10:56;102085.34;;;15.23;90.00
78411;BME280;67706;51.074;-1.796;2023-09-30T09:13:23;102082.59;;;15.44;89.79
78411;BME280;67706;51.074;-1.796;2023-09-30T09:16:05;102084.19;;;15.53;88.07
78411;BME280;67706;51.074;-1.796;2023-09-30T09:18:33;102077.78;;;15.53;88.99
78411;BME280;67706;51.074;-1.796;2023-09-30T09:21:11;102083.06;;;15.75;88.63
78411;BME280;67706;51.074;-1.796;2023-09-30T09:23:43;102076.16;;;15.93;88.04
78411;BME280;67706;51.074;-1.796;2023-09-30T09:26:11;102070.03;;;15.97;87.89
78411;BME280;67706;51.074;-1.796;2023-09-30T09:28:39;102065.34;;;15.98;88.00
78411;BME280;67706;51.074;-1.796;2023-09-30T09:31:22;102062.72;;;16.24;87.50
78411;BME280;67706;51.074;-1.796;2023-09-30T09:33:50;102047.56;;;16.20;87.75
78411;BME280;67706;51.074;-1.796;2023-09-30T09:36:18;102054.16;;;16.12;88.68
78411;BME280;67706;51.074;-1.796;2023-09-30T09:38:48;102062.72;;;16.24;88.42
78411;BME280;67706;51.074;-1.796;2023-09-30T09:41:18;102066.31;;;16.18;88.55
78411;BME280;67706;51.074;-1.796;2023-09-30T09:43:48;102054.59;;;16.16;88.09
78411;BME280;67706;51.074;-1.796;2023-09-30T09:46:17;102055.88;;;16.20;88.04
78411;BME280;67706;51.074;-1.796;2023-09-30T09:48:45;102057.66;;;16.34;88.31
78411;BME280;67706;51.074;-1.796;2023-09-30T09:51:13;102046.97;;;16.65;85.56
78411;BME280;67706;51.074;-1.796;2023-09-30T09:53:41;102037.81;;;16.71;85.11
78411;BME280;67706;51.074;-1.796;2023-09-30T09:56:10;102035.28;;;16.89;83.82
78411;BME280;67706;51.074;-1.796;2023-09-30T09:58:39;102031.44;;;16.77;84.19
78411;BME280;67706;51.074;-1.796;2023-09-30T10:01:09;102023.09;;;16.71;84.45
78411;BME280;67706;51.074;-1.796;2023-09-30T10:03:37;102021.81;;;16.66;85.42
78411;BME280;67706;51.074;-1.796;2023-09-30T10:06:05;102012.66;;;16.79;85.35
78411;BME280;67706;51.074;-1.796;2023-09-30T10:08:36;102010.16;;;17.10;83.63
78411;BME280;67706;51.074;-1.796;2023-09-30T10:11:04;102012.94;;;17.23;83.53
78411;BME280;67706;51.074;-1.796;2023-09-30T10:13:53;102003.97;;;17.28;82.20
78411;BME280;67706;51.074;-1.796;2023-09-30T10:16:49;102002.03;;;17.28;82.89
78411;BME280;67706;51.074;-1.796;2023-09-30T10:19:17;102003.31;;;17.45;81.45
78411;BME280;67706;51.074;-1.796;2023-09-30T10:22:21;102005.03;;;17.66;79.23
78411;BME280;67706;51.074;-1.796;2023-09-30T10:24:49;101996.72;;;17.60;78.97
78411;BME280;67706;51.074;-1.796;2023-09-30T10:27:33;101987.31;;;17.61;77.19
78411;BME280;67706;51.074;-1.796;2023-09-30T10:30:11;101980.06;;;17.60;77.13
78411;BME280;67706;51.074;-1.796;2023-09-30T10:33:07;101996.28;;;17.56;77.65
78411;BME280;67706;51.074;-1.796;2023-09-30T10:35:47;102003.34;;;17.52;77.79
78411;BME280;67706;51.074;-1.796;2023-09-30T10:38:44;102005.03;;;17.60;78.27
78411;BME280;67706;51.074;-1.796;2023-09-30T10:44:34;101994.78;;;17.47;78.96
78411;BME280;67706;51.074;-1.796;2023-09-30T10:47:37;101994.16;;;17.65;78.12
78411;BME280;67706;51.074;-1.796;2023-09-30T10:53:09;101988.19;;;17.68;77.61
78411;BME280;67706;51.074;-1.796;2023-09-30T10:55:37;101988.38;;;17.73;78.43
78411;BME280;67706;51.074;-1.796;2023-09-30T10:58:04;101986.19;;;17.88;76.72
78411;BME280;67706;51.074;-1.796;2023-09-30T11:00:30;101982.81;;;17.79;76.58
78411;BME280;67706;51.074;-1.796;2023-09-30T11:02:58;101974.69;;;17.78;76.57
78411;BME280;67706;51.074;-1.796;2023-09-30T11:05:25;101983.19;;;17.89;76.26
78411;BME280;67706;51.074;-1.796;2023-09-30T11:07:53;101987.84;;;18.02;74.73
78411;BME280;67706;51.074;-1.796;2023-09-30T11:10:24;101984.66;;;18.05;74.00
78411;BME280;67706;51.074;-1.796;2023-09-30T11:12:56;101981.41;;;18.08;72.00
78411;BME280;67706;51.074;-1.796;2023-09-30T11:15:23;101978.63;;;18.08;71.22
78411;BME280;67706;51.074;-1.796;2023-09-30T11:17:49;101972.44;;;18.06;70.67
78411;BME280;67706;51.074;-1.796;2023-09-30T11:20:18;101973.34;;;18.00;70.34
78411;BME280;67706;51.074;-1.796;2023-09-30T11:22:46;101983.13;;;18.09;69.47
78411;BME280;67706;51.074;-1.796;2023-09-30T11:25:17;101977.06;;;18.25;68.60
78411;BME280;67706;51.074;-1.796;2023-09-30T11:27:44;101987.28;;;18.44;68.04
78411;BME280;67706;51.074;-1.796;2023-09-30T11:30:13;101990.69;;;18.46;67.88
78411;BME280;67706;51.074;-1.796;2023-09-30T11:32:40;102003.88;;;18.57;66.95
78411;BME280;67706;51.074;-1.796;2023-09-30T11:35:22;101991.31;;;18.48;67.94
78411;BME280;67706;51.074;-1.796;2023-09-30T11:37:50;101981.06;;;18.42;68.33
78411;BME280;67706;51.074;-1.796;2023-09-30T11:40:17;101981.91;;;18.49;69.24
78411;BME280;67706;51.074;-1.796;2023-09-30T11:43:06;101972.31;;;18.39;70.22
78411;BME280;67706;51.074;-1.796;2023-09-30T11:45:33;101967.78;;;18.51;69.87
78411;BME280;67706;51.074;-1.796;2023-09-30T11:48:00;101968.19;;;18.54;69.81
78411;BME280;67706;51.074;-1.796;2023-09-30T11:50:47;101963.91;;;18.52;70.16
78411;BME280;67706;51.074;-1.796;2023-09-30T11:53:16;101956.00;;;18.55;69.84
78411;BME280;67706;51.074;-1.796;2023-09-30T11:55:43;101954.25;;;18.61;69.54
78411;BME280;67706;51.074;-1.796;2023-09-30T11:58:11;101951.34;;;18.49;69.37
78411;BME280;67706;51.074;-1.796;2023-09-30T12:00:44;101946.47;;;18.38;70.79
78411;BME280;67706;51.074;-1.796;2023-09-30T12:03:10;101949.63;;;18.48;69.55
78411;BME280;67706;51.074;-1.796;2023-09-30T12:05:37;101943.41;;;18.53;69.15
78411;BME280;67706;51.074;-1.796;2023-09-30T12:08:05;101951.44;;;18.67;68.62
78411;BME280;67706;51.074;-1.796;2023-09-30T12:10:33;101943.66;;;18.51;68.19
78411;BME280;67706;51.074;-1.796;2023-09-30T12:12:59;101939.97;;;18.57;68.93
78411;BME280;67706;51.074;-1.796;2023-09-30T12:15:26;101940.25;;;18.49;68.81
78411;BME280;67706;51.074;-1.796;2023-09-30T12:17:53;101939.88;;;18.33;68.36
78411;BME280;67706;51.074;-1.796;2023-09-30T12:20:20;101937.25;;;18.44;68.92
78411;BME280;67706;51.074;-1.796;2023-09-30T12:22:46;101945.78;;;18.49;69.20
78411;BME280;67706;51.074;-1.796;2023-09-30T12:25:15;101940.91;;;18.38;68.83
78411;BME280;67706;51.074;-1.796;2023-09-30T12:27:44;101939.81;;;18.39;68.35
78411;BME280;67706;51.074;-1.796;2023-09-30T12:30:12;101929.75;;;18.51;68.11
78411;BME280;67706;51.074;-1.796;2023-09-30T12:32:39;101932.97;;;18.42;69.68
78411;BME280;67706;51.074;-1.796;2023-09-30T12:35:06;101922.16;;;18.27;69.93
78411;BME280;67706;51.074;-1.796;2023-09-30T12:37:33;101923.25;;;18.26;69.07
78411;BME280;67706;51.074;-1.796;2023-09-30T12:40:00;101925.84;;;18.14;68.01
78411;BME280;67706;51.074;-1.796;2023-09-30T12:42:30;101928.03;;;18.06;68.99
78411;BME280;67706;51.074;-1.796;2023-09-30T12:44:57;101922.84;;;18.16;68.42
78411;BME280;67706;51.074;-1.796;2023-09-30T12:47:23;101929.09;;;18.05;69.32